createdAt,value
2018-02-12T00:00:36.034Z,9.55
2018-02-12T00:01:38.552Z,8.95
2018-02-12T00:02:41.835Z,8.73
2018-02-12T00:03:45.160Z,8.88
2018-02-12T00:04:47.676Z,9.25
2018-02-12T00:05:50.192Z,9.20
2018-02-12T00:06:52.709Z,10.35
2018-02-12T00:07:55.225Z,9.77
2018-02-12T00:08:57.803Z,9.70
2018-02-12T00:10:00.326Z,8.43
2018-02-12T00:11:03.608Z,10.38
2018-02-12T00:12:06.892Z,10.48
2018-02-12T00:13:10.180Z,8.90
2018-02-12T00:14:13.487Z,9.40
2018-02-12T00:15:15.996Z,10.35
2018-02-12T00:16:18.537Z,9.82
2018-02-12T00:17:21.056Z,9.90
2018-02-12T00:18:24.344Z,10.63
2018-02-12T00:19:27.656Z,9.30
2018-02-12T00:20:30.169Z,9.60
2018-02-12T00:21:32.693Z,8.77
2018-02-12T00:22:35.253Z,10.10
2018-02-12T00:23:37.984Z,10.05
2018-02-12T00:24:41.268Z,11.10
2018-02-12T00:25:44.558Z,9.40
2018-02-12T00:26:47.880Z,9.77
2018-02-12T00:27:50.403Z,9.38
2018-02-12T00:28:53.719Z,10.32
2018-02-12T00:29:56.234Z,10.23
2018-02-12T00:30:58.786Z,11.68
2018-02-12T00:32:01.343Z,11.23
2018-02-12T00:33:03.861Z,9.45
2018-02-12T00:34:07.141Z,9.98
2018-02-12T00:35:10.421Z,9.65
2018-02-12T00:36:13.705Z,10.27
2018-02-12T00:37:17.015Z,11.15
2018-02-12T00:38:19.527Z,9.18
2018-02-12T00:39:22.072Z,10.55
2018-02-12T00:40:24.622Z,10.48
2018-02-12T00:41:27.141Z,10.43
2018-02-12T00:42:29.652Z,10.43
2018-02-12T00:43:32.172Z,10.77
2018-02-12T00:44:34.733Z,9.88
2018-02-12T00:45:37.244Z,10.00
2018-02-12T00:46:39.782Z,10.60
2018-02-12T00:47:43.067Z,10.60
2018-02-12T00:49:55.405Z,9.52
2018-02-12T00:50:57.920Z,9.77
2018-02-12T00:52:00.433Z,8.55
2018-02-12T00:53:02.948Z,9.23
2018-02-12T00:54:05.462Z,9.75
2018-02-12T00:55:08.005Z,9.77
2018-02-12T00:56:11.363Z,8.80
2018-02-12T00:57:13.880Z,8.68
2018-02-12T00:58:16.397Z,9.30
2018-02-12T00:59:18.911Z,9.80
2018-02-12T01:00:21.416Z,8.13
2018-02-12T01:01:23.976Z,9.23
2018-02-12T01:02:26.488Z,9.05
2018-02-12T01:03:29.764Z,8.25
2018-02-12T01:04:32.314Z,9.00
2018-02-12T01:05:34.828Z,8.25
2018-02-12T01:06:37.372Z,8.10
2018-02-12T01:07:40.716Z,8.75
2018-02-12T01:08:43.227Z,8.77
2018-02-12T01:09:45.744Z,8.10
2018-02-12T01:10:48.262Z,9.10
2018-02-12T01:11:50.822Z,8.32
2018-02-12T01:12:53.336Z,7.90
2018-02-12T01:13:55.853Z,8.95
2018-02-12T01:14:58.365Z,8.48
2018-02-12T01:16:00.920Z,9.38
2018-02-12T01:17:03.428Z,9.40
2018-02-12T01:18:05.945Z,9.20
2018-02-12T01:19:08.452Z,8.10
2018-02-12T01:20:10.993Z,9.43
2018-02-12T01:21:13.545Z,8.77
2018-02-12T01:22:16.056Z,8.98
2018-02-12T01:23:19.348Z,8.70
2018-02-12T01:24:22.670Z,8.98
2018-02-12T01:25:25.190Z,8.23
2018-02-12T01:26:27.705Z,8.27
2018-02-12T01:27:30.229Z,8.35
2018-02-12T01:28:33.516Z,9.70
2018-02-12T01:29:36.836Z,8.35
2018-02-12T01:30:39.379Z,8.60
2018-02-12T01:31:41.893Z,8.52
2018-02-12T01:32:44.409Z,8.60
2018-02-12T01:33:47.699Z,8.52
2018-02-12T01:34:50.246Z,8.30
2018-02-12T01:35:53.528Z,9.13
2018-02-12T01:36:56.814Z,8.55
2018-02-12T01:38:00.093Z,8.20
2018-02-12T01:39:03.385Z,9.20
2018-02-12T01:40:05.940Z,8.05
2018-02-12T01:41:09.250Z,7.78
2018-02-12T01:42:11.764Z,8.40
2018-02-12T01:43:14.279Z,8.50
2018-02-12T01:44:16.856Z,9.02
2018-02-12T01:45:19.370Z,7.93
2018-02-12T01:46:21.929Z,8.95
2018-02-12T01:47:24.473Z,9.18
2018-02-12T01:48:26.993Z,8.70
2018-02-12T01:49:30.268Z,8.20
2018-02-12T01:50:32.786Z,7.85
2018-02-12T01:51:35.348Z,7.43
2018-02-12T01:52:37.865Z,8.27
2018-02-12T01:53:40.419Z,8.07
2018-02-12T01:54:42.968Z,8.40
2018-02-12T01:55:45.485Z,7.72
2018-02-12T01:56:48.796Z,8.15
2018-02-12T01:57:51.314Z,8.60
2018-02-12T01:58:53.873Z,8.13
2018-02-12T01:59:56.398Z,7.90
2018-02-12T02:00:58.924Z,7.82
2018-02-12T02:02:02.199Z,8.43
2018-02-12T02:03:05.481Z,8.40
2018-02-12T02:04:08.039Z,7.43
2018-02-12T02:05:10.554Z,8.07
2018-02-12T02:06:13.073Z,9.05
2018-02-12T02:07:15.584Z,8.25
2018-02-12T02:08:18.100Z,7.90
2018-02-12T02:09:20.668Z,7.65
2018-02-12T02:10:23.176Z,8.88
2018-02-12T02:11:25.721Z,7.62
2018-02-12T02:12:29.005Z,7.25
2018-02-12T02:13:32.305Z,7.70
2018-02-12T02:14:34.818Z,7.20
2018-02-12T02:15:37.331Z,8.43
2018-02-12T02:16:39.845Z,8.30
2018-02-12T02:17:42.348Z,7.85
2018-02-12T02:18:45.661Z,8.35
2018-02-12T02:19:48.176Z,8.73
2018-02-12T02:20:50.686Z,7.40
2018-02-12T02:21:53.195Z,7.95
2018-02-12T02:22:55.708Z,7.93
2018-02-12T02:23:58.264Z,8.60
2018-02-12T02:25:01.557Z,7.78
2018-02-12T02:26:04.068Z,7.78
2018-02-12T02:27:06.637Z,7.35
2018-02-12T02:28:09.152Z,7.60
2018-02-12T02:29:11.682Z,7.10
2018-02-12T02:30:14.198Z,7.65
2018-02-12T02:31:16.717Z,7.53
2018-02-12T02:32:19.269Z,7.47
2018-02-12T02:33:21.789Z,7.47
2018-02-12T02:34:24.305Z,7.75
2018-02-12T02:35:26.817Z,7.80
2018-02-12T02:36:29.369Z,7.60
2018-02-12T02:37:32.653Z,8.13
2018-02-12T02:38:35.931Z,8.38
2018-02-12T02:39:39.222Z,7.97
2018-02-12T02:40:42.543Z,7.00
2018-02-12T02:41:45.216Z,7.20
2018-02-12T02:42:47.728Z,8.45
2018-02-12T02:43:51.018Z,8.20
2018-02-12T02:44:54.291Z,8.13
2018-02-12T02:45:56.857Z,7.93
2018-02-12T02:46:59.374Z,8.05
2018-02-12T02:48:01.892Z,7.85
2018-02-12T02:49:04.401Z,7.65
2018-02-12T02:50:06.912Z,8.23
2018-02-12T02:51:09.469Z,8.75
2018-02-12T02:52:12.009Z,7.90
2018-02-12T02:53:14.528Z,8.15
2018-02-12T02:54:17.813Z,8.15
2018-02-12T02:55:21.097Z,8.30
2018-02-12T02:56:24.485Z,8.57
2018-02-12T02:57:27.781Z,7.65
2018-02-12T02:58:30.314Z,8.90
2018-02-12T02:59:32.833Z,9.02
2018-02-12T03:00:35.345Z,8.98
2018-02-12T03:01:37.897Z,7.70
2018-02-12T03:02:40.407Z,7.93
2018-02-12T03:03:43.693Z,8.40
2018-02-12T03:04:46.978Z,8.80
2018-02-12T03:05:50.258Z,8.57
2018-02-12T03:06:53.568Z,8.18
2018-02-12T03:07:56.084Z,8.48
2018-02-12T03:08:58.604Z,8.70
2018-02-12T03:10:01.112Z,8.65
2018-02-12T03:11:03.632Z,7.43
2018-02-12T03:12:06.185Z,8.90
2018-02-12T03:13:08.700Z,8.13
2018-02-12T03:14:11.218Z,8.77
2018-02-12T03:15:13.730Z,8.50
2018-02-12T03:16:16.281Z,7.65
2018-02-12T03:17:18.799Z,8.40
2018-02-12T03:18:22.090Z,8.25
2018-02-12T03:19:24.717Z,7.82
2018-02-12T03:20:27.245Z,8.75
2018-02-12T03:21:29.793Z,7.30
2018-02-12T03:22:32.306Z,8.68
2018-02-12T03:23:34.816Z,7.25
2018-02-12T03:24:38.133Z,7.35
2018-02-12T03:25:40.669Z,7.95
2018-02-12T03:26:43.220Z,8.07
2018-02-12T03:27:46.659Z,7.93
2018-02-12T03:28:49.177Z,8.05
2018-02-12T03:29:52.457Z,7.65
2018-02-12T03:30:55.769Z,6.85
2018-02-12T03:31:58.285Z,7.87
2018-02-12T03:33:00.833Z,8.32
2018-02-12T03:34:03.411Z,8.55
2018-02-12T03:35:05.940Z,7.90
2018-02-12T03:36:08.452Z,7.35
2018-02-12T03:37:10.965Z,8.38
2018-02-12T03:38:13.478Z,7.30
2018-02-12T03:39:16.024Z,7.97
2018-02-12T03:40:18.544Z,8.00
2018-02-12T03:41:21.857Z,7.75
2018-02-12T03:42:24.381Z,8.63
2018-02-12T03:43:27.662Z,8.85
2018-02-12T03:44:30.217Z,7.37
2018-02-12T03:45:32.729Z,8.43
2018-02-12T03:46:35.240Z,8.45
2018-02-12T03:47:37.756Z,7.95
2018-02-12T03:48:40.271Z,8.40
2018-02-12T03:49:42.831Z,7.53
2018-02-12T03:50:45.348Z,9.20
2018-02-12T03:51:47.948Z,8.13
2018-02-12T03:52:50.473Z,8.10
2018-02-12T03:53:53.752Z,8.38
2018-02-12T03:54:57.069Z,8.30
2018-02-12T03:55:59.586Z,9.23
2018-02-12T03:57:02.132Z,8.90
2018-02-12T03:58:04.643Z,8.35
2018-02-12T03:59:07.917Z,9.38
2018-02-12T04:00:11.199Z,9.18
2018-02-12T04:01:14.478Z,8.40
2018-02-12T04:02:17.793Z,8.32
2018-02-12T04:03:20.309Z,9.43
2018-02-12T04:04:22.861Z,9.15
2018-02-12T04:05:25.382Z,8.73
2018-02-12T04:06:27.923Z,9.20
2018-02-12T04:07:31.205Z,9.23
2018-02-12T04:08:33.769Z,8.98
2018-02-12T04:09:36.333Z,8.68
2018-02-12T04:10:38.845Z,9.05
2018-02-12T04:11:41.358Z,9.45
2018-02-12T04:12:43.869Z,9.60
2018-02-12T04:13:46.392Z,8.65
2018-02-12T04:14:48.941Z,9.55
2018-02-12T04:15:51.466Z,10.00
2018-02-12T04:16:54.022Z,9.98
2018-02-12T04:17:56.558Z,8.45
2018-02-12T04:18:59.068Z,8.65
2018-02-12T04:20:01.585Z,9.43
2018-02-12T04:21:04.128Z,9.45
2018-02-12T04:22:06.676Z,9.38
2018-02-12T04:23:09.193Z,8.95
2018-02-12T04:24:11.710Z,9.98
2018-02-12T04:25:14.231Z,8.75
2018-02-12T04:26:17.512Z,8.90
2018-02-12T04:27:20.836Z,9.35
2018-02-12T04:28:23.476Z,9.77
2018-02-12T04:29:26.793Z,9.43
2018-02-12T04:30:29.367Z,9.55
2018-02-12T04:31:31.924Z,10.05
2018-02-12T04:32:34.435Z,8.80
2018-02-12T04:33:36.952Z,8.85
2018-02-12T04:34:39.468Z,9.20
2018-02-12T04:35:41.985Z,8.85
2018-02-12T04:36:44.533Z,8.70
2018-02-12T04:37:47.053Z,9.65
2018-02-12T04:38:49.582Z,10.05
2018-02-12T04:39:52.116Z,9.30
2018-02-12T04:40:55.401Z,9.77
2018-02-12T04:41:58.724Z,11.15
2018-02-12T04:43:01.245Z,9.95
2018-02-12T04:44:04.533Z,10.60
2018-02-12T04:45:07.817Z,9.93
2018-02-12T04:46:11.101Z,10.52
2018-02-12T04:47:14.416Z,9.75
2018-02-12T04:48:16.936Z,11.10
2018-02-12T04:49:19.451Z,10.73
2018-02-12T04:50:21.970Z,10.15
2018-02-12T04:51:24.494Z,11.15
2018-02-12T04:52:27.048Z,11.27
2018-02-12T04:53:29.607Z,11.10
2018-02-12T04:54:32.141Z,12.90
2018-02-12T04:55:35.424Z,12.40
2018-02-12T04:56:38.708Z,11.32
2018-02-12T04:57:41.988Z,12.65
2018-02-12T04:58:45.304Z,13.35
2018-02-12T04:59:47.826Z,11.90
2018-02-12T05:00:50.343Z,12.30
2018-02-12T05:01:52.890Z,13.70
2018-02-12T05:02:56.174Z,13.90
2018-02-12T05:03:59.447Z,13.80
2018-02-12T05:05:02.776Z,13.65
2018-02-12T05:06:05.293Z,14.57
2018-02-12T05:07:08.581Z,13.88
2018-02-12T05:08:11.865Z,15.30
2018-02-12T05:09:15.149Z,14.48
2018-02-12T05:10:18.464Z,13.95
2018-02-12T05:11:20.990Z,14.15
2018-02-12T05:12:24.302Z,16.10
2018-02-12T05:13:26.833Z,14.93
2018-02-12T05:14:29.385Z,14.02
2018-02-12T05:15:31.912Z,14.07
2018-02-12T05:16:34.425Z,14.90
2018-02-12T05:17:36.940Z,14.30
2018-02-12T05:18:39.460Z,13.27
2018-02-12T05:19:42.025Z,13.93
2018-02-12T05:20:44.545Z,13.75
2018-02-12T05:21:47.059Z,13.18
2018-02-12T05:22:49.586Z,13.70
2018-02-12T05:23:52.108Z,13.65
2018-02-12T05:24:55.428Z,14.05
2018-02-12T05:25:57.946Z,11.95
2018-02-12T05:27:01.236Z,13.50
2018-02-12T05:28:04.515Z,13.20
2018-02-12T05:29:07.031Z,12.40
2018-02-12T05:30:09.595Z,12.20
2018-02-12T05:31:12.118Z,12.55
2018-02-12T05:32:15.403Z,13.25
2018-02-12T05:33:18.684Z,12.48
2018-02-12T05:34:21.976Z,11.98
2018-02-12T05:35:25.300Z,12.68
2018-02-12T05:36:27.899Z,11.85
2018-02-12T05:37:30.425Z,13.93
2018-02-12T05:38:32.953Z,18.48
2018-02-12T05:39:36.241Z,28.58
2018-02-12T05:40:39.560Z,15.43
2018-02-12T05:41:42.125Z,18.45
2018-02-12T05:42:44.644Z,24.65
2018-02-12T05:43:47.168Z,15.20
2018-02-12T05:44:49.688Z,15.07
2018-02-12T05:45:53.020Z,16.73
2018-02-12T05:46:55.532Z,23.17
2018-02-12T05:47:58.048Z,17.27
2018-02-12T05:49:00.568Z,13.32
2018-02-12T05:50:03.860Z,15.57
2018-02-12T05:51:07.184Z,14.25
2018-02-12T05:52:09.700Z,13.75
2018-02-12T05:53:12.989Z,13.95
2018-02-12T05:54:16.304Z,13.70
2018-02-12T05:55:18.852Z,18.55
2018-02-12T05:56:21.378Z,13.90
2018-02-12T05:57:23.929Z,14.63
2018-02-12T05:58:26.453Z,16.30
2018-02-12T05:59:28.972Z,12.55
2018-02-12T06:00:31.501Z,13.40
2018-02-12T06:01:34.049Z,13.00
2018-02-12T06:02:36.581Z,13.80
2018-02-12T06:03:39.104Z,12.32
2018-02-12T06:04:41.630Z,13.20
2018-02-12T06:05:44.916Z,12.35
2018-02-12T06:06:48.239Z,12.13
2018-02-12T06:07:50.757Z,12.48
2018-02-12T06:08:54.042Z,13.30
2018-02-12T06:09:56.633Z,13.10
2018-02-12T06:10:59.166Z,12.45
2018-02-12T06:12:01.817Z,13.48
2018-02-12T06:13:04.336Z,13.90
2018-02-12T06:14:06.857Z,11.75
2018-02-12T06:15:09.389Z,12.50
2018-02-12T06:16:11.924Z,10.60
2018-02-12T06:17:15.239Z,12.90
2018-02-12T06:18:17.756Z,11.73
2018-02-12T06:19:20.324Z,12.73
2018-02-12T06:20:23.609Z,13.20
2018-02-12T06:21:26.897Z,11.55
2018-02-12T06:22:30.184Z,12.00
2018-02-12T06:23:33.467Z,11.65
2018-02-12T06:24:36.788Z,12.30
2018-02-12T06:25:39.301Z,13.68
2018-02-12T06:26:41.857Z,11.35
2018-02-12T06:27:44.383Z,12.40
2018-02-12T06:28:46.896Z,11.90
2018-02-12T06:29:49.409Z,13.30
2018-02-12T06:30:51.968Z,13.10
2018-02-12T06:31:54.540Z,11.93
2018-02-12T06:32:57.062Z,12.20
2018-02-12T06:33:59.630Z,12.68
2018-02-12T06:35:02.159Z,11.80
2018-02-12T06:36:04.672Z,12.02
2018-02-12T06:37:07.969Z,12.30
2018-02-12T06:38:11.288Z,12.70
2018-02-12T06:39:13.833Z,11.50
2018-02-12T06:40:16.349Z,11.70
2018-02-12T06:41:18.869Z,10.95
2018-02-12T06:42:21.384Z,12.27
2018-02-12T06:43:23.942Z,11.75
2018-02-12T06:44:27.230Z,11.45
2018-02-12T06:45:29.744Z,11.65
2018-02-12T06:46:32.273Z,12.25
2018-02-12T06:47:34.832Z,10.93
2018-02-12T06:48:37.356Z,11.05
2018-02-12T06:49:39.887Z,12.05
2018-02-12T06:50:43.177Z,10.77
2018-02-12T06:51:46.472Z,11.60
2018-02-12T06:52:49.037Z,11.55
2018-02-12T06:53:51.581Z,13.52
2018-02-12T06:54:54.101Z,18.30
2018-02-12T06:55:56.624Z,15.15
2018-02-12T06:56:59.909Z,14.05
2018-02-12T06:58:03.233Z,12.27
2018-02-12T06:59:05.806Z,12.02
2018-02-12T07:00:08.329Z,12.40
2018-02-12T07:01:11.616Z,10.63
2018-02-12T07:02:14.902Z,11.45
2018-02-12T07:03:17.420Z,11.73
2018-02-12T07:04:19.982Z,12.25
2018-02-12T07:05:22.537Z,12.63
2018-02-12T07:07:34.004Z,11.50
2018-02-12T07:08:36.605Z,12.70
2018-02-12T07:09:39.125Z,12.40
2018-02-12T07:10:41.672Z,12.00
2018-02-12T07:11:44.957Z,12.37
2018-02-12T07:12:48.241Z,10.95
2018-02-12T07:13:51.535Z,12.63
2018-02-12T07:14:54.059Z,12.95
2018-02-12T07:15:56.627Z,12.43
2018-02-12T07:16:59.149Z,12.30
2018-02-12T07:18:01.677Z,11.75
2018-02-12T07:19:04.193Z,12.23
2018-02-12T07:20:06.728Z,12.48
2018-02-12T07:21:10.053Z,13.70
2018-02-12T07:22:12.604Z,12.80
2018-02-12T07:23:15.121Z,12.37
2018-02-12T07:24:17.642Z,11.65
2018-02-12T07:25:20.164Z,12.43
2018-02-12T07:26:23.446Z,12.65
2018-02-12T07:27:26.780Z,12.52
2018-02-12T07:28:29.301Z,13.05
2018-02-12T07:29:32.588Z,14.10
2018-02-12T07:30:35.874Z,13.85
2018-02-12T07:31:39.176Z,13.40
2018-02-12T07:32:41.719Z,13.52
2018-02-12T07:33:45.002Z,13.70
2018-02-12T07:34:48.281Z,14.63
2018-02-12T07:35:51.613Z,15.65
2018-02-12T07:36:54.129Z,14.57
2018-02-12T07:37:57.414Z,14.65
2018-02-12T07:39:00.701Z,14.60
2018-02-12T07:40:03.992Z,15.25
2018-02-12T07:41:07.313Z,14.40
2018-02-12T07:42:09.834Z,14.85
2018-02-12T07:43:13.117Z,14.70
2018-02-12T07:44:16.409Z,16.70
2018-02-12T07:45:19.696Z,15.70
2018-02-12T07:46:23.026Z,16.02
2018-02-12T07:47:25.553Z,15.07
2018-02-12T07:48:28.078Z,15.85
2018-02-12T07:49:30.629Z,16.70
2018-02-12T07:50:33.165Z,15.70
2018-02-12T07:51:35.678Z,15.57
2018-02-12T07:52:38.521Z,16.25
2018-02-12T07:53:41.088Z,12.82
2018-02-12T07:54:43.607Z,12.50
2018-02-12T07:55:46.952Z,14.52
2018-02-12T07:56:49.481Z,16.60
2018-02-12T07:57:52.005Z,17.62
2018-02-12T07:58:54.515Z,16.33
2018-02-12T07:59:57.054Z,15.60
2018-02-12T08:01:00.380Z,16.02
2018-02-12T08:02:03.000Z,15.77
2018-02-12T08:03:06.284Z,18.42
2018-02-12T08:04:08.812Z,16.77
2018-02-12T08:05:11.349Z,16.25
2018-02-12T08:06:13.896Z,14.52
2018-02-12T08:07:17.184Z,13.85
2018-02-12T08:08:20.476Z,15.82
2018-02-12T08:09:23.002Z,17.10
2018-02-12T08:10:25.539Z,14.38
2018-02-12T08:11:28.101Z,14.40
2018-02-12T08:12:30.620Z,14.85
2018-02-12T08:13:33.917Z,14.40
2018-02-12T08:14:36.449Z,13.20
2018-02-12T08:15:38.968Z,13.55
2018-02-12T08:16:41.521Z,11.77
2018-02-12T08:17:44.049Z,11.40
2018-02-12T08:18:46.564Z,10.13
2018-02-12T08:19:49.120Z,10.48
2018-02-12T08:20:51.636Z,10.45
2018-02-12T08:21:54.152Z,7.85
2018-02-12T08:22:56.669Z,8.10
2018-02-12T08:23:59.211Z,7.72
2018-02-12T08:25:01.765Z,8.05
2018-02-12T08:26:04.272Z,7.30
2018-02-12T08:27:06.828Z,7.55
2018-02-12T08:28:09.357Z,7.28
2018-02-12T08:29:11.877Z,5.07
2018-02-12T08:30:14.393Z,4.90
2018-02-12T08:31:16.955Z,5.30
2018-02-12T08:32:19.492Z,5.40
2018-02-12T08:33:22.776Z,5.40
2018-02-12T08:34:26.108Z,5.80
2018-02-12T08:35:28.644Z,6.47
2018-02-12T08:36:31.163Z,6.05
2018-02-12T08:37:33.677Z,8.75
2018-02-12T08:38:36.185Z,6.40
2018-02-12T08:39:38.737Z,5.75
2018-02-12T08:40:41.258Z,6.78
2018-02-12T08:41:44.541Z,5.30
2018-02-12T08:42:47.812Z,5.35
2018-02-12T08:43:50.332Z,5.10
2018-02-12T08:44:52.892Z,5.50
2018-02-12T08:45:55.416Z,5.20
2018-02-12T08:46:58.696Z,6.72
2018-02-12T08:48:01.987Z,6.60
2018-02-12T08:49:05.279Z,6.45
2018-02-12T08:50:08.591Z,5.45
2018-02-12T08:51:11.105Z,5.12
2018-02-12T08:52:13.624Z,4.50
2018-02-12T08:53:16.142Z,4.32
2018-02-12T08:54:18.650Z,4.80
2018-02-12T08:55:21.212Z,5.22
2018-02-12T08:56:23.727Z,5.30
2018-02-12T08:57:26.242Z,4.00
2018-02-12T08:58:28.766Z,4.95
2018-02-12T08:59:31.282Z,4.60
2018-02-12T09:00:33.837Z,5.30
2018-02-12T09:01:36.350Z,4.40
2018-02-12T09:02:38.867Z,5.45
2018-02-12T09:03:41.415Z,4.75
2018-02-12T09:04:44.702Z,5.22
2018-02-12T09:05:48.293Z,5.50
2018-02-12T09:06:51.585Z,5.22
2018-02-12T09:07:54.094Z,5.40
2018-02-12T09:08:56.661Z,6.15
2018-02-12T09:09:59.175Z,4.80
2018-02-12T09:11:02.467Z,6.65
2018-02-12T09:12:05.082Z,5.82
2018-02-12T09:13:07.603Z,5.20
2018-02-12T09:14:10.164Z,5.72
2018-02-12T09:15:13.477Z,5.10
2018-02-12T09:16:15.989Z,5.75
2018-02-12T09:17:19.295Z,6.00
2018-02-12T09:18:21.856Z,7.85
2018-02-12T09:19:25.185Z,6.32
2018-02-12T09:20:27.703Z,7.20
2018-02-12T09:21:30.994Z,7.07
2018-02-12T09:22:33.522Z,7.72
2018-02-12T09:23:36.054Z,7.87
2018-02-12T09:24:38.625Z,7.70
2018-02-12T09:25:41.152Z,9.00
2018-02-12T09:26:44.428Z,9.30
2018-02-12T09:27:46.946Z,10.18
2018-02-12T09:28:49.469Z,8.88
2018-02-12T09:29:52.789Z,9.75
2018-02-12T09:30:55.320Z,8.98
2018-02-12T09:31:58.604Z,9.40
2018-02-12T09:33:01.893Z,9.10
2018-02-12T09:34:05.244Z,8.50
2018-02-12T09:35:07.804Z,8.73
2018-02-12T09:36:10.325Z,9.38
2018-02-12T09:37:12.845Z,9.60
2018-02-12T09:38:15.378Z,8.98
2018-02-12T09:39:17.896Z,9.82
2018-02-12T09:40:21.232Z,10.07
2018-02-12T09:41:23.739Z,9.95
2018-02-12T09:42:26.267Z,11.02
2018-02-12T09:43:29.564Z,10.20
2018-02-12T09:44:32.081Z,9.57
2018-02-12T09:45:34.648Z,10.30
2018-02-12T09:46:37.164Z,9.65
2018-02-12T09:47:39.685Z,10.65
2018-02-12T09:48:42.201Z,11.55
2018-02-12T09:49:44.724Z,10.73
2018-02-12T09:50:47.279Z,10.30
2018-02-12T09:51:49.814Z,11.48
2018-02-12T09:52:52.337Z,11.20
2018-02-12T09:53:54.852Z,11.90
2018-02-12T09:54:58.202Z,11.23
2018-02-12T09:56:00.737Z,11.18
2018-02-12T09:57:03.268Z,11.65
2018-02-12T09:58:06.552Z,11.90
2018-02-12T09:59:09.845Z,12.93
2018-02-12T10:00:13.164Z,12.00
2018-02-12T10:01:15.675Z,12.48
2018-02-12T10:02:18.204Z,10.68
2018-02-12T10:03:20.771Z,11.63
2018-02-12T10:04:23.281Z,11.55
2018-02-12T10:05:25.802Z,10.93
2018-02-12T10:06:28.335Z,12.70
2018-02-12T10:07:30.849Z,12.15
2018-02-12T10:08:33.411Z,12.00
2018-02-12T10:09:35.919Z,11.23
2018-02-12T10:10:39.205Z,12.05
2018-02-12T10:11:42.532Z,11.00
2018-02-12T10:12:45.049Z,12.07
2018-02-12T10:13:48.344Z,11.75
2018-02-12T10:14:51.629Z,11.93
2018-02-12T10:15:54.914Z,11.57
2018-02-12T10:16:58.242Z,12.68
2018-02-12T10:18:00.779Z,12.50
2018-02-12T10:19:03.297Z,12.45
2018-02-12T10:20:05.821Z,11.77
2018-02-12T10:21:08.345Z,11.55
2018-02-12T10:22:10.916Z,11.30
2018-02-12T10:23:14.200Z,11.93
2018-02-12T10:24:17.489Z,11.43
2018-02-12T10:25:20.785Z,11.23
2018-02-12T10:26:23.308Z,12.75
2018-02-12T10:27:25.869Z,12.32
2018-02-12T10:28:28.394Z,12.32
2018-02-12T10:29:30.916Z,11.18
2018-02-12T10:30:33.444Z,12.35
2018-02-12T10:31:35.959Z,12.27
2018-02-12T10:32:39.284Z,13.13
2018-02-12T10:33:41.852Z,12.37
2018-02-12T10:34:44.368Z,12.10
2018-02-12T10:35:46.884Z,13.10
2018-02-12T10:36:49.407Z,12.95
2018-02-12T10:37:51.933Z,12.65
2018-02-12T10:38:54.480Z,12.88
2018-02-12T10:39:57.008Z,13.77
2018-02-12T10:41:00.324Z,14.95
2018-02-12T10:42:02.871Z,12.75
2018-02-12T10:43:06.162Z,12.90
2018-02-12T10:44:08.789Z,13.35
2018-02-12T10:45:11.320Z,12.50
2018-02-12T10:46:13.874Z,12.48
2018-02-12T10:47:16.389Z,13.73
2018-02-12T10:48:18.913Z,13.30
2018-02-12T10:49:21.435Z,14.93
2018-02-12T10:50:23.995Z,14.00
2018-02-12T10:51:26.554Z,12.93
2018-02-12T10:52:29.073Z,13.90
2018-02-12T10:53:31.642Z,14.18
2018-02-12T10:54:34.155Z,12.90
2018-02-12T10:55:36.686Z,12.82
2018-02-12T10:56:39.242Z,13.43
2018-02-12T10:57:41.753Z,12.73
2018-02-12T10:58:44.323Z,12.90
2018-02-12T10:59:46.865Z,13.93
2018-02-12T11:00:49.389Z,12.98
2018-02-12T11:01:51.921Z,13.05
2018-02-12T11:02:54.443Z,11.32
2018-02-12T11:03:56.993Z,12.73
2018-02-12T11:04:59.525Z,13.20
2018-02-12T11:06:02.041Z,12.85
2018-02-12T11:07:04.596Z,12.13
2018-02-12T11:08:07.116Z,14.10
2018-02-12T11:09:09.633Z,14.57
2018-02-12T11:10:12.144Z,12.05
2018-02-12T11:11:14.664Z,13.20
2018-02-12T11:12:17.217Z,13.20
2018-02-12T11:13:19.736Z,12.55
2018-02-12T11:14:22.290Z,12.18
2018-02-12T11:15:24.800Z,11.85
2018-02-12T11:16:28.121Z,13.62
2018-02-12T11:17:30.659Z,12.50
2018-02-12T11:18:33.186Z,11.10
2018-02-12T11:19:35.729Z,11.98
2018-02-12T11:20:38.256Z,10.50
2018-02-12T11:21:41.581Z,11.32
2018-02-12T11:22:44.126Z,11.20
2018-02-12T11:23:46.641Z,10.60
2018-02-12T11:24:49.153Z,10.85
2018-02-12T11:25:51.719Z,10.95
2018-02-12T11:26:54.237Z,10.93
2018-02-12T11:27:56.766Z,10.48
2018-02-12T11:28:59.283Z,10.85
2018-02-12T11:30:02.569Z,12.73
2018-02-12T11:31:05.888Z,11.68
2018-02-12T11:32:08.405Z,11.70
2018-02-12T11:33:10.963Z,11.05
2018-02-12T11:34:13.652Z,12.25
2018-02-12T11:35:16.943Z,11.30
2018-02-12T11:36:20.229Z,11.70
2018-02-12T11:37:23.520Z,10.68
2018-02-12T11:38:26.837Z,10.32
2018-02-12T11:39:29.358Z,11.10
2018-02-12T11:40:32.645Z,10.77
2018-02-12T11:41:35.938Z,11.02
2018-02-12T11:42:39.225Z,12.30
2018-02-12T11:43:42.543Z,10.70
2018-02-12T11:44:45.071Z,12.40
2018-02-12T11:45:48.358Z,10.65
2018-02-12T11:46:51.649Z,11.23
2018-02-12T11:47:54.226Z,11.20
2018-02-12T11:48:56.796Z,10.77
2018-02-12T11:49:59.317Z,11.00
2018-02-12T11:51:01.960Z,11.30
2018-02-12T11:52:04.480Z,11.15
2018-02-12T11:53:06.998Z,11.73
2018-02-12T11:54:09.557Z,12.05
2018-02-12T11:55:12.089Z,12.20
2018-02-12T11:56:14.658Z,11.12
2018-02-12T11:57:17.191Z,12.20
2018-02-12T11:58:20.481Z,12.50
2018-02-12T11:59:23.805Z,12.98
2018-02-12T12:00:26.338Z,12.85
2018-02-12T12:01:28.860Z,14.02
2018-02-12T12:02:31.389Z,13.43
2018-02-12T12:03:33.904Z,14.68
2018-02-12T12:04:36.459Z,13.93
2018-02-12T12:05:39.012Z,13.23
2018-02-12T12:06:41.529Z,14.98
2018-02-12T12:07:44.820Z,15.07
2018-02-12T12:08:47.337Z,14.40
2018-02-12T12:09:49.857Z,14.40
2018-02-12T12:10:52.412Z,14.35
2018-02-12T12:11:55.695Z,13.75
2018-02-12T12:12:58.989Z,14.80
2018-02-12T12:14:01.521Z,14.50
2018-02-12T12:15:04.039Z,14.68
2018-02-12T12:16:06.597Z,13.20
2018-02-12T12:17:09.156Z,13.43
2018-02-12T12:18:12.434Z,12.77
2018-02-12T12:19:15.731Z,12.65
2018-02-12T12:20:18.260Z,12.65
2018-02-12T12:21:20.812Z,12.20
2018-02-12T12:22:23.333Z,11.95
2018-02-12T12:23:25.856Z,10.60
2018-02-12T12:24:28.378Z,11.88
2018-02-12T12:25:30.929Z,12.30
2018-02-12T12:26:33.510Z,11.48
2018-02-12T12:27:36.037Z,12.00
2018-02-12T12:28:39.329Z,12.27
2018-02-12T12:29:42.616Z,10.95
2018-02-12T12:30:45.146Z,10.55
2018-02-12T12:31:47.697Z,11.27
2018-02-12T12:32:50.225Z,10.90
2018-02-12T12:33:52.798Z,11.52
2018-02-12T12:34:55.317Z,10.32
2018-02-12T12:35:57.838Z,10.05
2018-02-12T12:37:00.365Z,10.30
2018-02-12T12:38:03.657Z,9.40
2018-02-12T12:39:06.973Z,8.55
2018-02-12T12:40:09.489Z,9.38
2018-02-12T12:41:12.036Z,9.60
2018-02-12T12:42:14.553Z,9.05
2018-02-12T12:43:17.071Z,8.75
2018-02-12T12:44:19.622Z,8.20
2018-02-12T12:45:22.151Z,9.45
2018-02-12T12:46:24.689Z,9.27
2018-02-12T12:47:27.213Z,9.07
2018-02-12T12:48:29.724Z,8.68
2018-02-12T12:49:33.053Z,9.35
2018-02-12T12:50:35.569Z,9.40
2018-02-12T12:51:38.924Z,9.43
2018-02-12T12:52:41.435Z,9.25
2018-02-12T12:53:44.726Z,10.00
2018-02-12T12:54:47.285Z,8.38
2018-02-12T12:55:50.574Z,8.32
2018-02-12T12:56:53.096Z,8.73
2018-02-12T12:57:55.609Z,8.50
2018-02-12T12:58:58.159Z,8.77
2018-02-12T13:00:01.435Z,8.80
2018-02-12T13:01:03.954Z,8.70
2018-02-12T13:02:06.505Z,9.23
2018-02-12T13:03:09.029Z,8.15
2018-02-12T13:04:11.545Z,8.60
2018-02-12T13:05:14.057Z,7.90
2018-02-12T13:06:16.600Z,8.43
2018-02-12T13:07:19.143Z,8.27
2018-02-12T13:08:21.814Z,9.10
2018-02-12T13:09:24.329Z,9.77
2018-02-12T13:10:26.883Z,9.38
2018-02-12T13:11:29.409Z,9.52
2018-02-12T13:12:31.954Z,8.70
2018-02-12T13:13:34.480Z,9.07
2018-02-12T13:14:36.990Z,8.77
2018-02-12T13:15:39.538Z,8.25
2018-02-12T13:16:42.817Z,8.30
2018-02-12T13:17:46.101Z,8.00
2018-02-12T13:18:49.397Z,7.75
2018-02-12T13:19:52.708Z,7.60
2018-02-12T13:20:55.409Z,8.50
2018-02-12T13:21:57.904Z,7.60
2018-02-12T13:23:01.227Z,8.30
2018-02-12T13:24:03.742Z,7.70
2018-02-12T13:25:07.038Z,7.25
2018-02-12T13:26:10.321Z,7.82
2018-02-12T13:27:13.600Z,8.32
2018-02-12T13:28:16.157Z,8.32
2018-02-12T13:29:18.690Z,8.85
2018-02-12T13:30:21.213Z,9.45
2018-02-12T13:31:24.493Z,8.98
2018-02-12T13:32:27.775Z,9.38
2018-02-12T13:33:31.085Z,6.68
2018-02-12T13:34:33.610Z,7.68
2018-02-12T13:35:36.136Z,7.80
2018-02-12T13:36:38.693Z,7.53
2018-02-12T13:37:41.209Z,7.90
2018-02-12T13:38:43.730Z,8.13
2018-02-12T13:39:46.253Z,8.23
2018-02-12T13:40:49.528Z,7.25
2018-02-12T13:41:52.087Z,7.40
2018-02-12T13:42:54.608Z,7.53
2018-02-12T13:43:57.121Z,8.13